createdAt,value
2023-05-03T00:04:15.084Z,10.40
2023-05-03T00:09:18.507Z,10.30
2023-05-03T00:14:21.604Z,10.30
2023-05-03T00:19:31.821Z,10.30
2023-05-03T00:29:39.335Z,10.10
2023-05-03T00:34:44.952Z,10.10
2023-05-03T00:39:47.914Z,10.20
2023-05-03T00:50:14.663Z,10.10
2023-05-03T00:55:18.825Z,10.00
2023-05-03T01:00:22.741Z,10.00
2023-05-03T01:05:29.443Z,9.90
2023-05-03T01:11:17.234Z,9.80
2023-05-03T01:16:31.624Z,9.80
2023-05-03T01:21:37.852Z,9.70
2023-05-03T01:26:44.332Z,9.60
2023-05-03T01:31:56.118Z,9.60
2023-05-03T01:37:03.378Z,9.50
2023-05-03T01:42:21.793Z,9.50
2023-05-03T01:52:34.198Z,9.50
2023-05-03T01:57:37.896Z,9.50
2023-05-03T02:02:40.821Z,9.50
2023-05-03T02:07:43.662Z,9.40
2023-05-03T02:12:48.843Z,9.40
2023-05-03T02:17:54.672Z,9.40
2023-05-03T02:22:59.354Z,9.40
2023-05-03T02:28:04.515Z,9.40
2023-05-03T02:33:11.953Z,12.80
2023-05-03T02:38:15.815Z,9.40
2023-05-03T02:43:24.157Z,9.30
2023-05-03T02:48:34.656Z,9.40
2023-05-03T02:53:37.661Z,9.20
2023-05-03T02:58:40.462Z,9.10
2023-05-03T03:03:50.389Z,9.00
2023-05-03T03:09:01.403Z,9.10
2023-05-03T03:14:06.216Z,8.90
2023-05-03T03:19:10.222Z,8.80
2023-05-03T03:24:14.182Z,8.80
2023-05-03T03:29:19.580Z,8.70
2023-05-03T03:34:23.238Z,8.60
2023-05-03T03:39:32.463Z,8.50
2023-05-03T03:44:36.344Z,8.60
2023-05-03T03:49:41.943Z,8.50
2023-05-03T03:54:45.541Z,8.40
2023-05-03T03:59:51.579Z,8.40
2023-05-03T04:04:58.244Z,8.50
2023-05-03T04:10:04.732Z,7.90
2023-05-03T04:15:11.741Z,9.80
2023-05-03T04:20:18.238Z,10.40
2023-05-03T04:25:32.192Z,10.50
2023-05-03T04:30:47.666Z,9.90
2023-05-03T04:35:56.890Z,9.70
2023-05-03T04:41:10.740Z,9.60
2023-05-03T04:46:20.814Z,9.60
2023-05-03T04:51:37.835Z,9.50
2023-05-03T04:56:46.495Z,9.30
2023-05-03T05:01:55.791Z,9.20
2023-05-03T05:06:59.693Z,9.20
2023-05-03T05:12:17.217Z,9.20
2023-05-03T05:17:22.142Z,9.40
2023-05-03T05:22:25.575Z,9.60
2023-05-03T05:27:34.131Z,9.60
2023-05-03T05:32:37.622Z,9.80
2023-05-03T05:37:42.313Z,9.90
2023-05-03T05:42:48.681Z,10.10
2023-05-03T05:47:52.355Z,10.30
2023-05-03T05:52:55.541Z,10.20
2023-05-03T05:58:00.848Z,10.30
2023-05-03T06:03:11.608Z,10.30
2023-05-03T06:08:15.080Z,10.70
2023-05-03T06:13:19.123Z,10.80
2023-05-03T06:18:23.489Z,10.80
2023-05-03T06:23:38.559Z,10.90
2023-05-03T06:28:43.181Z,10.90
2023-05-03T06:33:46.181Z,11.00
2023-05-03T06:38:49.043Z,11.30
2023-05-03T06:43:52.221Z,11.30
2023-05-03T06:49:01.309Z,11.30
2023-05-03T06:54:09.926Z,11.50
2023-05-03T06:59:12.995Z,11.70
2023-05-03T07:04:16.378Z,11.80
2023-05-03T07:09:22.070Z,12.30
2023-05-03T07:14:32.171Z,13.00
2023-05-03T07:19:35.311Z,12.60
2023-05-03T07:24:38.684Z,12.90
2023-05-03T07:29:44.586Z,13.00
2023-05-03T07:34:49.833Z,13.10
2023-05-03T07:39:54.229Z,12.80
2023-05-03T07:44:56.931Z,12.60
2023-05-03T07:49:59.904Z,12.20
2023-05-03T07:55:03.972Z,12.40
2023-05-03T08:00:11.089Z,12.20
2023-05-03T08:05:17.971Z,11.90
2023-05-03T08:10:21.862Z,14.00
2023-05-03T08:15:24.934Z,13.00
2023-05-03T08:20:27.686Z,13.30
2023-05-03T08:25:30.932Z,12.80
2023-05-03T08:30:35.970Z,12.70
2023-05-03T08:35:46.416Z,13.50
2023-05-03T08:41:31.076Z,13.50
2023-05-03T08:46:52.290Z,12.80
2023-05-03T08:52:23.868Z,11.50
2023-05-03T08:57:27.499Z,14.10
2023-05-03T09:02:30.435Z,13.50
2023-05-03T09:07:35.283Z,12.40
2023-05-03T09:12:41.567Z,12.80
2023-05-03T09:17:50.442Z,12.70
2023-05-03T09:22:54.076Z,12.90
2023-05-03T09:28:04.674Z,13.40
2023-05-03T09:33:09.543Z,13.70
2023-05-03T09:38:54.706Z,13.50
2023-05-03T09:44:13.839Z,13.20
2023-05-03T09:49:25.175Z,12.90
2023-05-03T09:54:41.317Z,12.80
2023-05-03T09:59:57.825Z,13.60
2023-05-03T10:05:03.790Z,13.70
2023-05-03T10:10:12.246Z,13.50
2023-05-03T10:15:24.243Z,13.30
2023-05-03T10:20:50.786Z,13.70
2023-05-03T10:26:14.091Z,14.20
2023-05-03T10:31:48.664Z,14.90
2023-05-03T10:36:55.716Z,14.60
2023-05-03T10:42:07.909Z,14.90
2023-05-03T10:47:15.048Z,15.80
2023-05-03T10:52:39.224Z,14.30
2023-05-03T10:57:47.807Z,14.20
2023-05-03T11:03:24.981Z,13.90
2023-05-03T11:13:54.832Z,13.90
2023-05-03T11:19:00.498Z,15.30
2023-05-03T11:24:09.192Z,14.90
2023-05-03T11:35:23.406Z,13.60
2023-05-03T11:40:45.155Z,14.40
2023-05-03T11:45:56.544Z,14.80
2023-05-03T11:51:15.425Z,13.50
2023-05-03T11:56:21.696Z,13.40
2023-05-03T12:01:28.857Z,14.50
2023-05-03T12:06:37.576Z,14.50
2023-05-03T12:12:13.101Z,14.60
2023-05-03T12:17:49.963Z,13.00
2023-05-03T12:23:09.748Z,15.10
2023-05-03T12:28:21.613Z,15.40
2023-05-03T12:33:26.819Z,14.60
2023-05-03T12:38:31.830Z,14.70
2023-05-03T12:43:43.631Z,14.00
2023-05-03T12:54:02.624Z,13.70
2023-05-03T12:59:40.036Z,14.10
2023-05-03T13:05:11.529Z,14.40
2023-05-03T13:10:24.324Z,15.10
2023-05-03T13:15:36.753Z,14.70
2023-05-03T13:20:54.422Z,14.40
2023-05-03T13:25:59.626Z,14.60
2023-05-03T13:31:11.540Z,14.30
2023-05-03T13:36:19.923Z,14.50
2023-05-03T13:41:42.234Z,14.80
2023-05-03T13:47:59.985Z,14.60
2023-05-03T13:53:13.785Z,14.00
2023-05-03T13:58:43.380Z,14.00
2023-05-03T14:03:58.536Z,13.70
2023-05-03T14:09:10.137Z,13.70
2023-05-03T14:14:23.198Z,13.70
2023-05-03T14:19:42.680Z,14.00
2023-05-03T14:24:51.070Z,13.70
2023-05-03T14:29:58.777Z,13.40
2023-05-03T14:35:06.575Z,13.60
2023-05-03T14:40:19.118Z,13.80
2023-05-03T14:45:27.296Z,14.00
2023-05-03T14:50:34.550Z,14.50
2023-05-03T15:01:06.084Z,14.10
2023-05-03T15:06:11.535Z,14.30
2023-05-03T15:11:30.606Z,14.00
2023-05-03T15:16:39.846Z,13.80
2023-05-03T15:22:04.813Z,14.10
2023-05-03T15:27:20.222Z,14.10
2023-05-03T15:32:34.202Z,14.20
2023-05-03T15:37:45.920Z,14.20
2023-05-03T15:43:07.875Z,14.10
2023-05-03T15:48:46.130Z,13.90
2023-05-03T15:54:02.453Z,13.70
2023-05-03T15:59:18.251Z,13.80
2023-05-03T16:04:52.204Z,13.80
2023-05-03T16:10:06.969Z,13.90
2023-05-03T16:15:19.222Z,13.90
2023-05-03T16:20:43.600Z,13.90
2023-05-03T16:26:04.878Z,13.60
2023-05-03T16:32:10.894Z,13.30
2023-05-03T16:37:29.503Z,13.10
2023-05-03T16:42:36.018Z,12.90
2023-05-03T16:48:16.931Z,12.80
2023-05-03T16:53:33.722Z,12.60
2023-05-03T16:58:50.478Z,13.20
2023-05-03T17:04:07.290Z,13.60
2023-05-03T17:09:15.339Z,13.40
2023-05-03T17:14:30.103Z,12.70
2023-05-03T17:25:19.027Z,12.00
2023-05-03T17:36:01.810Z,11.60
2023-05-03T17:41:13.722Z,11.10
2023-05-03T17:46:23.156Z,11.00
2023-05-03T17:51:48.466Z,10.60
2023-05-03T17:57:04.198Z,10.10
2023-05-03T18:02:09.465Z,9.30
2023-05-03T18:12:53.877Z,8.10
2023-05-03T18:18:00.911Z,7.60
2023-05-03T18:23:30.450Z,7.20
2023-05-03T18:28:46.348Z,7.00
2023-05-03T18:34:00.636Z,6.80
2023-05-03T18:39:15.502Z,6.30
2023-05-03T18:45:07.338Z,5.90
2023-05-03T18:56:06.677Z,5.10
2023-05-03T19:01:30.433Z,5.10
2023-05-03T19:07:00.253Z,5.10
2023-05-03T19:12:19.804Z,4.70
2023-05-03T19:17:40.412Z,4.30
2023-05-03T19:28:53.825Z,3.70
2023-05-03T19:34:14.015Z,3.50
2023-05-03T19:39:47.763Z,3.50
2023-05-03T19:45:20.490Z,3.40
2023-05-03T19:51:02.806Z,3.30
2023-05-03T19:56:37.999Z,3.20
2023-05-03T20:02:03.745Z,2.90
2023-05-03T20:07:32.770Z,2.80
2023-05-03T20:18:52.892Z,2.40
2023-05-03T20:24:25.738Z,2.40
2023-05-03T20:35:46.544Z,2.30
2023-05-03T20:41:14.075Z,2.10
2023-05-03T20:51:59.504Z,1.60
2023-05-03T20:57:25.231Z,1.60
2023-05-03T21:02:57.948Z,1.80
2023-05-03T21:08:50.640Z,2.10
2023-05-03T21:14:38.316Z,2.10
2023-05-03T21:25:48.315Z,1.70
2023-05-03T21:36:40.339Z,1.50
2023-05-03T21:42:06.666Z,1.30
2023-05-03T21:47:50.199Z,1.20
2023-05-03T21:53:38.350Z,0.80
2023-05-03T21:59:07.919Z,0.70
2023-05-03T22:04:35.155Z,0.50
2023-05-03T22:09:54.238Z,0.40
2023-05-03T22:15:24.244Z,0.40
2023-05-03T22:20:47.603Z,0.30
2023-05-03T22:26:12.111Z,0.30
2023-05-03T22:32:00.408Z,0.10
2023-05-03T22:37:19.790Z,0.10
2023-05-03T22:42:49.087Z,0.10
2023-05-03T22:54:15.210Z,0.20
2023-05-03T22:59:50.128Z,0.10
2023-05-03T23:16:04.971Z,0.00
2023-05-03T23:21:42.669Z,0.00
2023-05-03T23:27:09.369Z,0.00
2023-05-03T23:32:53.005Z,-0.20
2023-05-03T23:38:22.188Z,-0.40
2023-05-03T23:43:48.332Z,-0.20
